Time;durP1;ratioP1;P1;durP2;ratioP2;P2;SDS_P1;SDS_P2;PMS_P1;PMS_P2;Temp;Humidity;BMP_temperature;BMP_pressure;BME280_temperature;BME280_humidity;BME280_pressure;Samples;Min_cycle;Max_cycle;Signal;HPM_P1;HPM_P2
2020/12/12 00:01:21;;;;;;;28.73;11.82;;;;;;;;;;4072983;35;20066;-86
2020/12/12 00:03:49;;;;;;;32.95;11.43;;;;;;;;;;4085211;27;20101;-86
2020/12/12 00:06:21;;;;;;;22.27;9.48;;;8.80;99.90;;;;;;4076568;27;20066;-86
2020/12/12 00:08:49;;;;;;;26.58;10.20;;;;;;;;;;4057046;28;20085;-86
2020/12/12 00:11:21;;;;;;;30.00;9.75;;;8.80;99.90;;;;;;4095047;27;20362;-85
2020/12/12 00:13:50;;;;;;;23.75;10.20;;;;;;;;;;4060705;35;20075;-87
2020/12/12 00:16:19;;;;;;;36.05;13.48;;;;;;;;;;4091725;27;20090;-86
2020/12/12 00:18:48;;;;;;;30.70;9.73;;;;;;;;;;4083586;27;20078;-86
2020/12/12 00:21:21;;;;;;;33.60;10.68;;;;;;;;;;4085868;27;20054;-85
2020/12/12 00:23:54;;;;;;;29.15;10.63;;;;;;;;;;4094567;27;20081;-85
2020/12/12 00:26:25;;;;;;;29.67;11.88;;;;;;;;;;4090114;27;20093;-86
2020/12/12 00:28:55;;;;;;;23.65;11.05;;;;;;;;;;4087160;27;20085;-87
2020/12/12 00:31:23;;;;;;;45.20;10.65;;;;;;;;;;4092104;27;20086;-85
2020/12/12 00:33:51;;;;;;;23.42;12.27;;;;;;;;;;4061167;35;20074;-86
2020/12/12 00:36:21;;;;;;;33.97;11.95;;;;;;;;;;4074674;27;20086;-86
2020/12/12 00:38:49;;;;;;;27.48;11.30;;;;;;;;;;4072393;35;20086;-85
2020/12/12 00:41:17;;;;;;;33.13;12.75;;;;;;;;;;4083189;35;20078;-86
2020/12/12 00:43:44;;;;;;;31.40;11.82;;;;;;;;;;4090694;27;20073;-86
2020/12/12 00:46:15;;;;;;;25.50;11.98;;;;;;;;;;4093341;27;20084;-86
2020/12/12 00:48:43;;;;;;;35.70;13.13;;;;;;;;;;4110571;27;20584;-85
2020/12/12 00:51:13;;;;;;;28.45;12.43;;;;;;;;;;4073038;35;20086;-85
2020/12/12 00:53:41;;;;;;;30.20;11.40;;;;;;;;;;4112948;27;20081;-86
2020/12/12 00:56:09;;;;;;;30.65;13.45;;;;;;;;;;4096643;27;20061;-85
2020/12/12 00:58:39;;;;;;;72.93;13.50;;;;;;;;;;4062938;35;20062;-86
2020/12/12 01:01:11;;;;;;;36.63;14.10;;;;;;;;;;4077830;27;20093;-87
2020/12/12 01:03:45;;;;;;;29.55;11.18;;;;;;;;;;4092856;27;20070;-86
2020/12/12 01:06:17;;;;;;;35.53;14.63;;;8.60;99.90;;;;;;4071471;35;20082;-85
2020/12/12 01:08:48;;;;;;;52.05;15.57;;;;;;;;;;4074646;35;20062;-86
2020/12/12 01:11:21;;;;;;;40.17;12.65;;;;;;;;;;4084404;35;20074;-87
2020/12/12 01:13:52;;;;;;;;;;;8.80;99.90;;;;;;4105624;27;20066;-87
2020/12/12 01:16:22;;;;;;;35.30;13.60;;;;;;;;;;4063684;35;20010;-87
2020/12/12 01:18:51;;;;;;;35.78;13.85;;;;;;;;;;4073254;35;20086;-86
2020/12/12 01:21:19;;;;;;;40.85;12.10;;;;;;;;;;4093572;27;20077;-87
2020/12/12 01:23:48;;;;;;;32.05;12.68;;;;;;;;;;4089694;27;20069;-87
2020/12/12 01:26:17;;;;;;;38.55;13.77;;;;;;;;;;4080159;27;20090;-86
2020/12/12 01:28:44;;;;;;;27.08;12.40;;;;;;;;;;4084841;27;20081;-88
2020/12/12 01:31:16;;;;;;;37.80;13.68;;;8.70;99.90;;;;;;4094761;27;20074;-87
2020/12/12 01:33:44;;;;;;;;;;;8.70;99.90;;;;;;4073979;35;20074;-86
2020/12/12 01:36:14;;;;;;;36.33;15.13;;;;;;;;;;4065454;35;19987;-87
2020/12/12 01:38:43;;;;;;;48.50;16.23;;;;;;;;;;4086739;27;20085;-87
2020/12/12 01:41:11;;;;;;;40.00;16.02;;;;;;;;;;4084291;27;20075;-87
2020/12/12 01:43:40;;;;;;;30.73;14.60;;;;;;;;;;4081680;27;20065;-86
2020/12/12 01:46:09;;;;;;;35.92;15.18;;;;;;;;;;4093269;27;20051;-86
2020/12/12 01:48:37;;;;;;;38.22;15.45;;;;;;;;;;4083026;27;20078;-87
2020/12/12 01:51:05;;;;;;;35.42;13.85;;;;;;;;;;4080579;27;20078;-87
2020/12/12 01:53:33;;;;;;;45.08;15.93;;;;;;;;;;4087613;27;20070;-86
2020/12/12 01:56:02;;;;;;;33.30;19.95;;;;;;;;;;4063165;35;20082;-87
2020/12/12 01:58:31;;;;;;;33.38;14.18;;;;;;;;;;4066482;27;20176;-86
2020/12/12 02:01:01;;;;;;;41.15;16.40;;;;;;;;;;4093832;27;20078;-87
2020/12/12 02:03:34;;;;;;;43.42;16.38;;;;;;;;;;4061559;28;20070;-88
2020/12/12 02:06:02;;;;;;;37.17;16.20;;;;;;;;;;4098693;27;20078;-87
2020/12/12 02:08:30;;;;;;;34.17;15.85;;;;;;;;;;4071802;35;20510;-86
2020/12/12 02:10:58;;;;;;;40.20;16.35;;;;;;;;;;4090827;27;20078;-85
2020/12/12 02:13:27;;;;;;;47.90;18.38;;;;;;;;;;4080699;27;20094;-86
2020/12/12 02:15:55;;;;;;;37.13;17.33;;;;;;;;;;4072071;35;20070;-87
2020/12/12 02:18:25;;;;;;;43.90;18.58;;;;;;;;;;4094647;27;20066;-87
2020/12/12 02:20:58;;;;;;;32.35;15.75;;;;;;;;;;4106867;27;20093;-86
2020/12/12 02:23:26;;;;;;;32.60;14.48;;;;;;;;;;4067325;27;20074;-86
2020/12/12 02:25:56;;;;;;;40.83;17.10;;;8.80;99.90;;;;;;4087122;27;20085;-86
2020/12/12 02:28:28;;;;;;;35.97;16.10;;;;;;;;;;4096670;27;20086;-86
2020/12/12 02:30:56;;;;;;;37.13;17.50;;;;;;;;;;4108584;27;20086;-87
2020/12/12 02:33:24;;;;;;;43.00;18.80;;;;;;;;;;4091353;27;20089;-86
2020/12/12 02:35:54;;;;;;;49.17;20.60;;;;;;;;;;4076378;27;20075;-84
2020/12/12 02:38:23;;;;;;;37.97;16.90;;;;;;;;;;4070729;35;20078;-86
2020/12/12 02:40:52;;;;;;;33.50;15.95;;;8.90;99.90;;;;;;4073746;27;20082;-87
2020/12/12 02:43:21;;;;;;;38.63;15.52;;;;;;;;;;4063292;27;20086;-86
2020/12/12 02:45:51;;;;;;;37.55;16.35;;;;;;;;;;4076093;27;20082;-86
2020/12/12 02:48:21;;;;;;;39.13;17.08;;;;;;;;;;4086537;35;20094;-87
2020/12/12 02:50:49;;;;;;;41.70;21.05;;;;;;;;;;4082199;27;20499;-87
2020/12/12 02:53:17;;;;;;;42.17;18.48;;;;;;;;;;4092255;27;20098;-88
2020/12/12 02:55:46;;;;;;;39.78;16.40;;;;;;;;;;4069752;35;20055;-86
2020/12/12 02:58:14;;;;;;;36.33;19.25;;;;;;;;;;4066454;27;20062;-87
2020/12/12 03:00:42;;;;;;;42.28;17.20;;;;;;;;;;4108546;27;20567;-86
2020/12/12 03:03:09;;;;;;;38.53;17.38;;;;;;;;;;4114134;27;20059;-87
2020/12/12 03:05:37;;;;;;;45.28;19.83;;;;;;;;;;4084261;35;20081;-86
2020/12/12 03:08:06;;;;;;;55.25;18.48;;;;;;;;;;4109429;27;20631;-86
2020/12/12 03:10:34;;;;;;;44.05;19.55;;;;;;;;;;4096623;27;20077;-86
2020/12/12 03:13:02;;;;;;;39.47;18.77;;;;;;;;;;4080106;35;20082;-86
2020/12/12 03:15:30;;;;;;;50.40;20.92;;;;;;;;;;4081752;27;20101;-86
2020/12/12 03:17:57;;;;;;;51.53;21.48;;;;;;;;;;4096242;27;20062;-88
2020/12/12 03:20:25;;;;;;;36.25;17.90;;;;;;;;;;4071458;27;20086;-86
2020/12/12 03:22:54;;;;;;;47.83;25.90;;;;;;;;;;4082258;27;20098;-86
2020/12/12 03:25:22;;;;;;;51.80;23.73;;;;;;;;;;4079521;27;20094;-88
2020/12/12 03:27:50;;;;;;;44.80;19.20;;;;;;;;;;4083735;27;20078;-86
2020/12/12 03:30:19;;;;;;;40.28;20.00;;;;;;;;;;4077217;27;20237;-85
2020/12/12 03:32:46;;;;;;;44.72;20.15;;;;;;;;;;4055059;35;20074;-87
2020/12/12 03:35:14;;;;;;;61.70;19.73;;;;;;;;;;4079938;27;20070;-86
2020/12/12 03:37:41;;;;;;;60.88;20.95;;;;;;;;;;4066277;35;20303;-86
2020/12/12 03:40:09;;;;;;;48.25;21.38;;;;;;;;;;4074781;27;20074;-86
2020/12/12 03:42:36;;;;;;;43.25;16.30;;;;;;;;;;4065620;35;20075;-86
2020/12/12 03:45:04;;;;;;;45.88;17.38;;;;;;;;;;4065512;35;20069;-87
2020/12/12 03:47:33;;;;;;;46.67;17.15;;;;;;;;;;4087204;27;20070;-85
2020/12/12 03:50:00;;;;;;;37.40;16.80;;;;;;;;;;4111234;27;20085;-88
2020/12/12 03:52:29;;;;;;;39.10;16.70;;;;;;;;;;4077551;35;20081;-86
2020/12/12 03:54:57;;;;;;;42.60;18.45;;;;;;;;;;4071693;27;20090;-88
2020/12/12 03:57:25;;;;;;;35.90;18.15;;;;;;;;;;4076026;27;20125;-86
2020/12/12 03:59:52;;;;;;;45.35;20.17;;;;;;;;;;4099263;27;20078;-86
2020/12/12 04:02:20;;;;;;;43.03;17.25;;;;;;;;;;4081127;27;20125;-88
2020/12/12 04:04:48;;;;;;;51.53;19.00;;;;;;;;;;4095613;27;20071;-87
2020/12/12 04:07:15;;;;;;;36.63;18.27;;;;;;;;;;4081610;27;20413;-86
2020/12/12 04:09:43;;;;;;;57.00;22.83;;;;;;;;;;4087952;27;20085;-87
2020/12/12 04:12:11;;;;;;;55.58;22.38;;;;;;;;;;4077138;35;20097;-87
2020/12/12 04:14:38;;;;;;;43.20;18.80;;;;;;;;;;4085932;27;20078;-88
2020/12/12 04:17:06;;;;;;;47.45;22.60;;;;;;;;;;4077970;35;20085;-87
2020/12/12 04:19:35;;;;;;;53.67;22.98;;;;;;;;;;4071758;28;20081;-87
2020/12/12 04:22:03;;;;;;;52.03;19.95;;;;;;;;;;4081703;27;20077;-87
2020/12/12 04:24:30;;;;;;;48.10;22.23;;;;;;;;;;4079695;27;20074;-86
2020/12/12 04:26:59;;;;;;;46.03;22.48;;;;;;;;;;4063659;27;20070;-86
2020/12/12 04:29:26;;;;;;;50.90;21.23;;;;;;;;;;4076467;35;20561;-87
2020/12/12 04:31:54;;;;;;;54.08;20.23;;;;;;;;;;4077712;27;20063;-88
2020/12/12 04:34:23;;;;;;;42.15;20.00;;;;;;;;;;4075657;35;20153;-87
2020/12/12 04:36:51;;;;;;;47.17;21.70;;;;;;;;;;4079307;27;20302;-88
2020/12/12 04:39:20;;;;;;;57.10;25.45;;;;;;;;;;4078342;27;20110;-88
2020/12/12 04:41:48;;;;;;;56.97;23.70;;;;;;;;;;4081155;27;20081;-86
2020/12/12 04:44:17;;;;;;;46.60;20.17;;;8.30;99.90;;;;;;4076904;35;20058;-86
2020/12/12 04:46:45;;;;;;;48.70;17.10;;;;;;;;;;4064388;27;20085;-87
2020/12/12 04:49:13;;;;;;;47.33;19.42;;;;;;;;;;4103288;27;20073;-87
2020/12/12 04:51:43;;;;;;;37.38;17.58;;;8.40;99.90;;;;;;4139467;27;20094;-87
2020/12/12 04:54:12;;;;;;;44.33;18.75;;;;;;;;;;4055272;27;20437;-88
2020/12/12 04:56:42;;;;;;;38.22;17.00;;;8.50;99.90;;;;;;4081261;27;20113;-87
2020/12/12 04:59:10;;;;;;;36.03;16.05;;;;;;;;;;4084525;27;20071;-88
2020/12/12 05:01:37;;;;;;;40.55;17.98;;;;;;;;;;4079491;35;20094;-86
2020/12/12 05:04:07;;;;;;;46.15;18.65;;;8.60;99.90;;;;;;4084830;27;20086;-85
2020/12/12 05:06:37;;;;;;;41.88;18.98;;;;;;;;;;4082093;27;20082;-87
2020/12/12 05:09:05;;;;;;;43.85;18.27;;;;;;;;;;4085242;27;20148;-86
2020/12/12 05:11:33;;;;;;;41.25;18.88;;;8.60;99.90;;;;;;4083594;35;20236;-87
2020/12/12 05:14:09;;;;;;;48.08;17.88;;;8.60;99.90;;;;;;4089375;27;20090;-88
2020/12/12 05:16:37;;;;;;;45.65;19.05;;;;;;;;;;4068014;35;20081;-87
2020/12/12 05:19:05;;;;;;;42.40;19.67;;;;;;;;;;4077579;27;20101;-86
2020/12/12 05:21:34;;;;;;;42.35;18.05;;;;;;;;;;4089242;27;20101;-86
2020/12/12 05:24:02;;;;;;;45.08;19.30;;;;;;;;;;4081676;35;20436;-88
2020/12/12 05:26:30;;;;;;;47.28;20.35;;;;;;;;;;4069322;35;20054;-89
2020/12/12 05:29:00;;;;;;;47.38;19.02;;;8.60;99.90;;;;;;4086860;27;20062;-88
2020/12/12 05:31:55;;;;;;;42.00;19.67;;;8.60;99.90;;;;;;4059784;35;20085;-87
2020/12/12 05:34:24;;;;;;;41.40;18.75;;;;;;;;;;4082603;28;20070;-86
2020/12/12 05:36:52;;;;;;;54.53;22.45;;;;;;;;;;4078379;27;20094;-87
2020/12/12 05:39:20;;;;;;;51.90;21.25;;;8.70;99.90;;;;;;4074877;27;20059;-87
2020/12/12 05:41:48;;;;;;;47.10;20.20;;;8.90;99.90;;;;;;4085076;27;20078;-86
2020/12/12 05:44:17;;;;;;;51.45;21.40;;;;;;;;;;4058339;27;20078;-88
2020/12/12 05:46:51;;;;;;;47.30;20.08;;;;;;;;;;4068610;35;20074;-87
2020/12/12 05:49:20;;;;;;;49.10;20.33;;;;;;;;;;4076391;35;20089;-87
2020/12/12 05:51:52;;;;;;;44.83;20.27;;;8.80;99.90;;;;;;4136248;27;20070;-88
2020/12/12 05:54:22;;;;;;;53.42;20.55;;;;;;;;;;4056761;27;20086;-85
2020/12/12 05:56:50;;;;;;;44.92;21.15;;;;;;;;;;4076835;35;20074;-87
2020/12/12 05:59:17;;;;;;;48.88;21.38;;;;;;;;;;4087098;27;20402;-87
2020/12/12 06:01:54;;;;;;;47.70;19.35;;;8.80;99.90;;;;;;4080393;27;20102;-86
2020/12/12 06:04:32;;;;;;;40.53;19.05;;;8.70;99.90;;;;;;4057029;35;20495;-86
2020/12/12 06:07:05;;;;;;;41.30;18.17;;;8.70;99.90;;;;;;4060471;27;20096;-86
2020/12/12 06:09:37;;;;;;;37.70;18.20;;;8.70;99.90;;;;;;4066684;35;20613;-87
2020/12/12 06:12:05;;;;;;;38.42;18.60;;;;;;;;;;4068313;27;20586;-87
2020/12/12 06:14:37;;;;;;;42.78;19.63;;;8.70;99.90;;;;;;4090004;27;20066;-87
2020/12/12 06:17:15;;;;;;;39.50;16.77;;;8.60;99.90;;;;;;4058347;27;20091;-88
2020/12/12 06:19:45;;;;;;;42.58;18.10;;;8.80;99.90;;;;;;4078399;27;20118;-86
2020/12/12 06:22:18;;;;;;;38.00;16.30;;;8.70;99.90;;;;;;4095181;27;20051;-88
2020/12/12 06:24:56;;;;;;;40.33;19.45;;;8.60;99.90;;;;;;4067788;27;20074;-86
2020/12/12 06:27:24;;;;;;;40.20;16.60;;;;;;;;;;4080249;27;20079;-87
2020/12/12 06:29:53;;;;;;;49.15;18.52;;;;;;;;;;4094898;27;20097;-87
2020/12/12 06:32:22;;;;;;;43.90;17.42;;;;;;;;;;4068080;27;20073;-87
2020/12/12 06:34:51;;;;;;;40.72;16.45;;;8.70;99.90;;;;;;4066050;35;20074;-88
2020/12/12 06:37:33;;;;;;;32.28;14.60;;;8.70;99.90;;;;;;4088510;27;20066;-87
2020/12/12 06:40:04;;;;;;;;;;;9.10;99.90;;;;;;4071231;27;20082;-87
2020/12/12 06:42:34;;;;;;;47.15;16.67;;;8.60;99.90;;;;;;4102094;27;20002;-88
2020/12/12 06:45:24;;;;;;;28.67;15.70;;;8.60;99.90;;;;;;4066366;35;20097;-87
2020/12/12 06:47:55;;;;;;;43.97;18.15;;;8.60;99.90;;;;;;4067375;28;20078;-86
2020/12/12 06:50:26;;;;;;;39.17;15.60;;;8.70;99.90;;;;;;4067977;27;20082;-86
2020/12/12 06:52:54;;;;;;;50.88;16.55;;;;;;;;;;4077865;35;20148;-86
2020/12/12 06:55:23;;;;;;;33.92;15.13;;;;;;;;;;4081547;27;20077;-88
2020/12/12 06:57:57;;;;;;;38.88;15.68;;;;;;;;;;4066336;35;20085;-87
2020/12/12 07:00:34;;;;;;;34.70;16.30;;;8.50;99.90;;;;;;4066953;35;20089;-86
2020/12/12 07:03:07;;;;;;;43.25;16.65;;;8.60;99.90;;;;;;4077549;27;20082;-86
2020/12/12 07:05:36;;;;;;;44.53;18.90;;;8.30;99.90;;;;;;4078153;27;20089;-86
2020/12/12 07:08:09;;;;;;;33.65;16.38;;;8.60;99.90;;;;;;4076923;35;20092;-87
2020/12/12 07:10:40;;;;;;;36.85;14.68;;;8.50;99.90;;;;;;4066466;27;20074;-87
2020/12/12 07:13:13;;;;;;;39.53;16.98;;;8.50;99.90;;;;;;4079167;35;20074;-86
2020/12/12 07:15:40;;;;;;;36.58;14.18;;;;;;;;;;4080054;27;20078;-88
2020/12/12 07:18:10;;;;;;;37.00;15.32;;;8.50;99.90;;;;;;4065829;28;20477;-87
2020/12/12 07:20:51;;;;;;;29.70;12.80;;;8.40;99.90;;;;;;4044225;35;20090;-87
2020/12/12 07:23:19;;;;;;;;;;;8.60;99.90;;;;;;4081049;27;20081;-87
2020/12/12 07:25:47;;;;;;;28.27;14.45;;;;;;;;;;4062906;27;19997;-87
2020/12/12 07:28:15;;;;;;;25.63;14.38;;;;;;;;;;4066582;28;20090;-89
2020/12/12 07:30:43;;;;;;;29.02;12.13;;;;;;;;;;4097642;27;20082;-87
2020/12/12 07:33:11;;;;;;;30.75;12.80;;;;;;;;;;4073879;27;20070;-87
2020/12/12 07:35:39;;;;;;;32.58;12.95;;;;;;;;;;4090085;27;20471;-88
2020/12/12 07:38:08;;;;;;;28.30;12.68;;;;;;;;;;4064199;35;20090;-87
2020/12/12 07:40:38;;;;;;;31.17;12.57;;;8.40;99.90;;;;;;4066000;27;20605;-88
2020/12/12 07:43:07;;;;;;;32.15;12.68;;;8.60;99.90;;;;;;4076848;35;20106;-86
2020/12/12 07:45:51;;;;;;;28.48;12.70;;;;;;;;;;4075704;27;20078;-87
2020/12/12 07:48:20;;;;;;;34.33;13.98;;;;;;;;;;4075662;27;20097;-86
2020/12/12 07:50:48;;;;;;;25.17;11.77;;;;;;;;;;4089660;27;20085;-86
2020/12/12 07:53:21;;;;;;;;;;;8.50;99.90;;;;;;4077004;27;20081;-87
2020/12/12 07:55:59;;;;;;;33.42;13.88;;;;;;;;;;4075275;27;19978;-85
2020/12/12 07:58:29;;;;;;;29.98;12.48;;;;;;;;;;4091956;27;20086;-87
2020/12/12 08:01:05;;;;;;;37.45;14.88;;;8.60;99.90;;;;;;4059881;27;20089;-85
2020/12/12 08:03:44;;;;;;;28.35;12.15;;;8.50;99.90;;;;;;4055953;35;20455;-88
2020/12/12 08:06:12;;;;;;;30.92;13.05;;;;;;;;;;4046284;35;20062;-87
2020/12/12 08:08:40;;;;;;;25.13;12.35;;;;;;;;;;4062987;27;20071;-87
2020/12/12 08:11:10;;;;;;;23.77;10.95;;;;;;;;;;4078887;35;20066;-86
2020/12/12 08:13:38;;;;;;;21.55;9.63;;;;;;;;;;4067484;35;20085;-86
2020/12/12 08:16:24;;;;;;;35.42;10.85;;;8.60;99.90;;;;;;4062593;27;20530;-86
2020/12/12 08:19:03;;;;;;;25.02;9.35;;;8.60;99.90;;;;;;4067692;27;20636;-86
2020/12/12 08:21:30;;;;;;;26.52;11.63;;;;;;;;;;4070208;27;20074;-87
2020/12/12 08:24:05;;;;;;;29.27;11.33;;;8.50;99.90;;;;;;4097228;27;20088;-86
2020/12/12 08:26:35;;;;;;;22.90;8.30;;;;;;;;;;4069469;27;20071;-86
2020/12/12 08:29:29;;;;;;;22.80;8.80;;;;;;;;;;4075203;27;20074;-86
2020/12/12 08:32:04;;;;;;;19.05;8.23;;;;;;;;;;4080353;27;20086;-86
2020/12/12 08:34:33;;;;;;;;;;;8.60;99.90;;;;;;4080901;27;20081;-86
2020/12/12 08:37:18;;;;;;;23.42;9.15;;;8.60;99.90;;;;;;4093411;27;20066;-87
2020/12/12 08:39:47;;;;;;;22.60;7.05;;;;;;;;;;4067355;35;20081;-87
2020/12/12 08:42:24;;;;;;;22.77;8.82;;;8.70;99.90;;;;;;4077882;27;20074;-88
2020/12/12 08:44:54;;;;;;;18.88;8.10;;;8.50;99.90;;;;;;4056096;35;20114;-89
2020/12/12 08:47:24;;;;;;;20.17;8.40;;;;;;;;;;4065828;27;20089;-87
2020/12/12 08:49:56;;;;;;;15.23;7.17;;;9.20;99.90;;;;;;4063136;35;20074;-86
2020/12/12 08:52:29;;;;;;;19.25;7.10;;;;;;;;;;4078047;35;20166;-91
2020/12/12 08:54:59;;;;;;;21.80;6.95;;;8.60;99.90;;;;;;4101295;27;20089;-88
2020/12/12 08:57:28;;;;;;;12.75;6.95;;;;;;;;;;4074547;27;20074;-87
2020/12/12 09:00:11;;;;;;;18.05;8.07;;;;;;;;;;4075811;27;20078;-88
2020/12/12 09:02:40;;;;;;;20.45;8.50;;;;;;;;;;4076795;27;20078;-86
2020/12/12 09:05:12;;;;;;;19.67;7.68;;;;;;;;;;4096062;27;20077;-88
2020/12/12 09:17:22;;;;;;;17.67;7.53;;;;;;;;;;4066243;27;20110;31
2020/12/12 09:26:55;;;;;;;13.35;5.90;;;;;;;;;;4108025;27;20067;-88
2020/12/12 09:29:52;;;;;;;12.32;6.88;;;;;;;;;;4063448;35;20035;-90
2020/12/12 09:36:27;;;;;;;16.50;8.00;;;9.10;99.90;;;;;;4076728;35;20047;-91
2020/12/12 09:40:05;;;;;;;10.93;6.57;;;;;;;;;;4050648;28;20093;-90
2020/12/12 09:46:35;;;;;;;15.88;7.53;;;;;;;;;;4075387;35;20036;-91
2020/12/12 09:49:30;;;;;;;9.63;4.80;;;;;;;;;;4025154;28;20110;-91
2020/12/12 10:05:18;;;;;;;10.50;5.35;;;9.10;99.90;;;;;;4085688;27;20082;-89
2020/12/12 10:07:52;;;;;;;9.98;4.57;;;;;;;;;;4076962;27;20066;-90
2020/12/12 10:10:41;;;;;;;10.00;4.63;;;;;;;;;;4054097;35;20055;-91
2020/12/12 10:17:02;;;;;;;8.85;4.13;;;;;;;;;;4102230;35;20066;-89
2020/12/12 10:19:50;;;;;;;11.20;6.07;;;;;;;;;;4087653;35;20081;-91
2020/12/12 10:22:36;;;;;;;13.18;5.20;;;;;;;;;;4090645;27;20058;-89
2020/12/12 10:25:23;;;;;;;8.95;4.30;;;;;;;;;;4115506;27;20054;-89
2020/12/12 10:28:16;;;;;;;8.63;4.32;;;;;;;;;;4089394;35;20058;-89
2020/12/12 10:34:46;;;;;;;9.63;4.88;;;;;;;;;;4060771;35;20317;-90
2020/12/12 12:39:44;;;;;;;5.93;1.90;;;9.90;99.90;;;;;;4062078;27;21367;-91
2020/12/12 12:49:01;;;;;;;8.40;2.17;;;;;;;;;;4106045;35;20054;-92
2020/12/12 12:56:27;;;;;;;9.98;2.78;;;;;;;;;;4086787;27;20050;-91
2020/12/12 13:00:08;;;;;;;11.73;2.10;;;9.90;99.90;;;;;;4080506;28;20070;-90
2020/12/12 13:03:23;;;;;;;3.28;1.95;;;;;;;;;;4072650;35;20069;-91
2020/12/12 13:06:26;;;;;;;28.98;5.68;;;;;;;;;;4072353;27;20057;-90
2020/12/12 13:10:04;;;;;;;9.57;2.30;;;;;;;;;;4070123;35;20058;-90
2020/12/12 13:13:30;;;;;;;4.50;2.83;;;;;;;;;;4100352;27;20054;-90
2020/12/12 13:17:05;;;;;;;8.98;3.97;;;;;;;;;;4063159;35;20094;-90
2020/12/12 13:21:07;;;;;;;9.73;3.67;;;;;;;;;;4063154;35;20071;-90
2020/12/12 13:32:59;;;;;;;5.35;2.60;;;;;;;;;;4133165;27;20125;-91
2020/12/12 13:36:25;;;;;;;6.15;2.47;;;;;;;;;;4064737;35;20050;-89
2020/12/12 13:39:37;;;;;;;8.23;1.55;;;;;;;;;;4082203;28;20066;-89
2020/12/12 13:47:09;;;;;;;12.43;2.30;;;;;;;;;;4078579;35;20051;-90
2020/12/12 14:00:52;;;;;;;7.07;2.40;;;;;;;;;;4094693;34;20035;-91
2020/12/12 15:01:25;;;;;;;7.88;2.53;;;;;;;;;;4077309;27;20044;-91
2020/12/12 15:05:55;;;;;;;7.75;4.18;;;9.80;99.90;;;;;;4057872;28;20057;-91
2020/12/12 15:09:20;;;;;;;12.57;4.28;;;;;;;;;;4103664;35;20039;-90
2020/12/12 15:13:39;;;;;;;4.38;2.08;;;9.60;99.90;;;;;;4039249;35;20091;-91
2020/12/12 15:16:13;;;;;;;5.47;2.05;;;9.70;99.90;;;;;;4034826;35;20131;-86
2020/12/12 15:18:47;;;;;;;15.00;3.00;;;;;;;;;;4035126;35;20063;-85
2020/12/12 15:21:16;;;;;;;7.55;2.17;;;;;;;;;;4035328;28;20059;-88
2020/12/12 15:23:48;;;;;;;4.93;2.03;;;;;;;;;;4029336;28;20082;-87
2020/12/12 15:26:19;;;;;;;10.75;2.80;;;;;;;;;;4034387;35;20067;-86
2020/12/12 15:29:04;;;;;;;8.10;2.40;;;9.70;99.90;;;;;;4067211;28;20094;-87
2020/12/12 15:31:50;;;;;;;11.02;3.05;;;;;;;;;;4002845;35;20051;-88
2020/12/12 15:34:28;;;;;;;7.63;2.80;;;;;;;;;;4024864;28;20221;-88
2020/12/12 15:37:08;;;;;;;9.98;2.40;;;;;;;;;;4032529;28;20088;-86
2020/12/12 15:39:42;;;;;;;8.80;2.58;;;;;;;;;;4009284;35;20060;-87
2020/12/12 15:42:53;;;;;;;6.80;2.50;;;9.60;99.90;;;;;;4040855;28;20094;-88
2020/12/12 15:49:57;;;;;;;5.93;2.20;;;;;;;;;;4031459;28;20090;-86
2020/12/12 15:52:30;;;;;;;6.53;2.53;;;9.60;99.90;;;;;;4065520;27;20116;-85
2020/12/12 15:55:50;;;;;;;11.60;3.15;;;9.60;99.90;;;;;;4060033;28;20062;-86
2020/12/12 15:58:20;;;;;;;10.50;4.65;;;;;;;;;;4078241;27;20047;-83
2020/12/12 16:00:52;;;;;;;7.88;2.13;;;;;;;;;;4046041;35;20587;-84
2020/12/12 16:03:25;;;;;;;19.75;3.83;;;;;;;;;;4072072;27;20112;-84
2020/12/12 16:05:59;;;;;;;9.98;2.63;;;;;;;;;;4066762;35;20278;-85
2020/12/12 16:08:31;;;;;;;5.28;3.15;;;;;;;;;;4077397;27;20658;-86
2020/12/12 16:11:04;;;;;;;9.88;4.72;;;;;;;;;;4077077;27;20087;-85
2020/12/12 16:13:34;;;;;;;6.13;2.90;;;;;;;;;;4066445;27;20081;-85
2020/12/12 16:16:03;;;;;;;8.60;2.80;;;9.50;99.90;;;;;;4077589;35;20097;-86
2020/12/12 16:18:32;;;;;;;12.73;3.28;;;;;;;;;;4088678;35;20093;-85
2020/12/12 16:21:03;;;;;;;10.20;3.10;;;;;;;;;;4078672;35;20102;-85
2020/12/12 16:23:31;;;;;;;19.30;3.97;;;;;;;;;;4065488;35;20078;-85
2020/12/12 16:25:59;;;;;;;11.65;2.30;;;;;;;;;;4096494;27;20097;-85
2020/12/12 16:28:30;;;;;;;12.90;4.18;;;;;;;;;;4073275;27;20088;-85
2020/12/12 16:30:59;;;;;;;14.23;3.58;;;;;;;;;;4091475;27;20093;-85
2020/12/12 16:33:27;;;;;;;10.20;2.58;;;;;;;;;;4066490;27;20093;-85
2020/12/12 16:35:56;;;;;;;12.45;3.58;;;;;;;;;;4067059;35;20078;-85
2020/12/12 16:38:27;;;;;;;7.55;3.40;;;;;;;;;;4080523;27;20095;-86
2020/12/12 16:40:55;;;;;;;14.45;4.28;;;;;;;;;;4094598;27;20078;-85
2020/12/12 16:43:23;;;;;;;9.38;3.42;;;;;;;;;;4078951;27;20523;-85
2020/12/12 16:45:50;;;;;;;7.35;2.67;;;;;;;;;;4075494;35;20073;-85
2020/12/12 16:48:19;;;;;;;20.75;3.20;;;;;;;;;;4086012;27;20078;-85
2020/12/12 16:50:47;;;;;;;7.07;2.72;;;;;;;;;;4089737;35;20541;-86
2020/12/12 16:53:16;;;;;;;11.00;2.60;;;;;;;;;;4065850;27;20092;-85
2020/12/12 16:55:44;;;;;;;29.88;3.85;;;;;;;;;;4081096;35;20098;-83
2020/12/12 16:58:12;;;;;;;6.70;2.22;;;;;;;;;;4062441;27;20082;-84
2020/12/12 17:00:39;;;;;;;5.55;2.72;;;;;;;;;;4076776;27;20489;-85
2020/12/12 17:03:09;;;;;;;13.40;2.90;;;;;;;;;;4088452;35;20166;-88
2020/12/12 17:05:38;;;;;;;6.95;3.10;;;;;;;;;;4077498;35;20077;-85
2020/12/12 17:08:06;;;;;;;11.02;3.03;;;;;;;;;;4080573;27;20074;-86
2020/12/12 17:10:34;;;;;;;7.53;3.25;;;;;;;;;;4073988;27;20093;-84
2020/12/12 17:13:02;;;;;;;5.60;2.55;;;;;;;;;;4077545;35;20080;-86
2020/12/12 17:15:30;;;;;;;8.95;2.80;;;;;;;;;;4093149;27;20082;-84
2020/12/12 17:17:58;;;;;;;7.07;3.70;;;;;;;;;;4087943;35;20562;-84
2020/12/12 17:20:28;;;;;;;7.68;3.13;;;;;;;;;;4089839;27;20121;-87
2020/12/12 17:22:57;;;;;;;13.05;3.97;;;;;;;;;;4089739;35;20070;-85
2020/12/12 17:25:26;;;;;;;7.28;3.25;;;;;;;;;;4082621;35;20097;-85
2020/12/12 17:27:55;;;;;;;10.45;2.83;;;8.50;99.90;;;;;;4081708;27;20556;-85
2020/12/12 17:30:24;;;;;;;8.63;2.72;;;;;;;;;;4067714;35;20097;-84
2020/12/12 17:32:52;;;;;;;12.68;2.78;;;;;;;;;;4087879;27;20552;-83
2020/12/12 17:35:20;;;;;;;6.90;2.95;;;;;;;;;;4077883;27;20077;-84
2020/12/12 17:37:50;;;;;;;6.68;3.33;;;;;;;;;;4102461;27;20081;-85
2020/12/12 17:40:19;;;;;;;11.30;3.70;;;;;;;;;;4088012;35;20093;-85
2020/12/12 17:42:47;;;;;;;8.30;3.13;;;;;;;;;;4081613;35;20081;-84
2020/12/12 17:45:15;;;;;;;13.48;5.25;;;;;;;;;;4099830;27;20062;-86
2020/12/12 17:47:44;;;;;;;9.73;3.83;;;;;;;;;;4079213;35;20058;-85
2020/12/12 17:50:14;;;;;;;10.82;4.43;;;;;;;;;;4079359;35;20105;-84
2020/12/12 17:52:45;;;;;;;16.88;4.05;;;;;;;;;;4093716;27;20086;-89
2020/12/12 17:55:21;;;;;;;14.20;4.83;;;7.60;99.90;;;;;;4087311;27;20086;-85
2020/12/12 17:57:54;;;;;;;12.60;4.68;;;;;;;;;;4084737;35;20889;-85
2020/12/12 18:00:23;;;;;;;16.52;5.30;;;;;;;;;;4083022;27;20085;-86
2020/12/12 18:02:53;;;;;;;11.35;3.95;;;;;;;;;;4069558;35;20066;-86
2020/12/12 18:05:32;;;;;;;14.95;4.53;;;;;;;;;;4078057;27;20572;-85
2020/12/12 18:08:07;;;;;;;10.65;4.00;;;;;;;;;;4077945;27;20625;-90
2020/12/12 18:11:34;;;;;;;9.70;4.00;;;;;;;;;;4095233;35;20035;-90
2020/12/12 18:14:23;;;;;;;5.00;3.42;;;;;;;;;;4143758;27;20077;-89
2020/12/12 18:21:30;;;;;;;7.55;3.08;;;7.10;99.90;;;;;;4088512;35;20061;-90
2020/12/12 18:24:32;;;;;;;9.32;4.22;;;;;;;;;;4098123;35;20074;-91
2020/12/12 18:30:47;;;;;;;10.75;3.75;;;;;;;;;;4103192;35;20077;-90
2020/12/12 18:33:44;;;;;;;13.43;5.05;;;;;;;;;;4091409;35;20081;-90
2020/12/12 18:36:31;;;;;;;13.60;5.75;;;;;;;;;;4094217;35;20057;-90
2020/12/12 18:39:20;;;;;;;17.17;5.82;;;;;;;;;;4109896;27;20076;-91
2020/12/12 18:42:06;;;;;;;10.82;3.67;;;6.90;99.90;;;;;;4109110;27;20077;-90
2020/12/12 18:45:24;;;;;;;11.45;4.80;;;;;;;;;;4107825;35;20065;-90
2020/12/12 18:48:43;;;;;;;10.18;4.57;;;;;;;;;;4124992;27;20077;-90
2020/12/12 18:51:50;;;;;;;11.05;4.03;;;;;;;;;;4099934;35;20120;-87
2020/12/12 18:54:25;;;;;;;17.20;4.32;;;;;;;;;;4105945;27;20088;-87
2020/12/12 18:56:55;;;;;;;16.63;6.63;;;;;;;;;;4129603;27;20066;-86
2020/12/12 18:59:36;;;;;;;15.63;5.47;;;;;;;;;;4098889;35;20092;-85
2020/12/12 19:02:04;;;;;;;10.38;5.30;;;;;;;;;;4097146;35;20088;-88
2020/12/12 19:04:34;;;;;;;13.65;5.30;;;;;;;;;;4095827;35;20143;-86
2020/12/12 19:07:09;;;;;;;9.57;3.47;;;;;;;;;;4090453;27;20092;-87
2020/12/12 19:09:43;;;;;;;13.90;4.60;;;;;;;;;;4098280;27;20501;-86
2020/12/12 19:12:14;;;;;;;16.25;6.07;;;;;;;;;;4109319;27;20070;-86
2020/12/12 19:14:41;;;;;;;7.45;3.53;;;;;;;;;;4099405;27;20084;-86
2020/12/12 19:17:11;;;;;;;8.20;5.03;;;;;;;;;;4108017;35;20089;-84
2020/12/12 19:19:40;;;;;;;9.10;4.78;;;;;;;;;;4116104;27;20076;-85
2020/12/12 19:22:11;;;;;;;13.40;4.72;;;;;;;;;;4084430;27;20081;-86